Time;durP1;ratioP1;P1;durP2;ratioP2;P2;SDS_P1;SDS_P2;PMS_P1;PMS_P2;Temp;Humidity;BMP_temperature;BMP_pressure;BME280_temperature;BME280_humidity;BME280_pressure;Samples;Min_cycle;Max_cycle;Signal;HPM_P1;HPM_P2
2023/09/26 00:01:15;;;;;;;1.73;1.30;;;;;;;;;;5129236;27;42215;-71
2023/09/26 00:03:43;;;;;;;1.58;1.40;;;;;;;;;;5128029;27;41753;-71
2023/09/26 00:06:21;;;;;;;1.50;1.30;;;;;;;;;;5129256;27;41723;-71
2023/09/26 00:08:49;;;;;;;1.40;1.10;;;;;;;;;;5129129;27;41318;-71
2023/09/26 00:11:18;;;;;;;2.65;1.23;;;;;;;;;;5129862;27;42018;-70
2023/09/26 00:13:48;;;;;;;1.45;1.35;;;;;;;;;;5127763;27;42035;-71
2023/09/26 00:16:16;;;;;;;1.95;1.20;;;;;;;;;;5131309;27;40209;-71
2023/09/26 00:18:44;;;;;;;2.58;1.75;;;;;;;;;;5128988;27;42568;-71
2023/09/26 00:21:12;;;;;;;1.60;1.30;;;;;;;;;;5129323;27;40837;-70
2023/09/26 00:23:41;;;;;;;2.15;1.40;;;;;;;;;;5127949;27;41934;-71
2023/09/26 00:26:09;;;;;;;1.25;1.05;;;;;;;;;;5128584;27;41711;-71
2023/09/26 00:28:41;;;;;;;1.83;1.15;;;;;;;;;;5127826;27;41910;-70
2023/09/26 00:31:10;;;;;;;1.85;1.20;;;;;;;;;;5129170;27;41590;-70
2023/09/26 00:33:39;;;;;;;2.83;1.38;;;;;;;;;;5128122;27;43108;-70
2023/09/26 00:36:07;;;;;;;2.40;1.40;;;;;;;;;;5128485;27;41404;-71
2023/09/26 00:38:35;;;;;;;2.85;1.52;;;;;;;;;;5128767;27;42391;-70
2023/09/26 00:41:04;;;;;;;1.70;1.55;;;;;;;;;;5128952;27;42253;-71
2023/09/26 00:43:32;;;;;;;2.17;1.67;;;;;;;;;;5127421;27;41705;-70
2023/09/26 00:46:00;;;;;;;2.28;1.50;;;;;;;;;;5128360;27;42030;-71
2023/09/26 00:48:30;;;;;;;2.10;1.45;;;;;;;;;;5126371;27;40147;-71
2023/09/26 00:50:58;;;;;;;2.22;1.60;;;;;;;;;;5126270;27;41729;-71
2023/09/26 00:53:26;;;;;;;2.22;1.90;;;;;;;;;;5128559;27;42751;-71
2023/09/26 00:55:55;;;;;;;2.28;1.70;;;;;;;;;;5141560;27;40892;-70
2023/09/26 00:58:23;;;;;;;2.42;1.70;;;;;;;;;;5128862;27;41990;-71
2023/09/26 01:00:51;;;;;;;1.60;1.30;;;;;;;;;;5127552;27;42016;-70
2023/09/26 01:03:19;;;;;;;3.50;1.42;;;;;;;;;;5119548;27;41721;-70
2023/09/26 01:05:49;;;;;;;2.13;1.42;;;;;;;;;;5128145;27;42057;-70
2023/09/26 01:08:17;;;;;;;6.60;1.83;;;;;;;;;;5113396;27;40374;-70
2023/09/26 01:10:45;;;;;;;1.50;1.40;;;;;;;;;;5126931;27;42666;-71
2023/09/26 01:13:13;;;;;;;2.28;1.58;;;;;;;;;;5110176;27;40539;-71
2023/09/26 01:15:42;;;;;;;2.60;1.60;;;;;;;;;;5109340;27;42129;-71
2023/09/26 01:18:11;;;;;;;1.40;1.30;;;;;;;;;;5128113;27;41757;-71
2023/09/26 01:20:39;;;;;;;1.55;1.40;;;;;;;;;;5128222;27;43101;-71
2023/09/26 01:23:08;;;;;;;2.03;1.42;;;;;;;;;;5128183;27;41140;-71
2023/09/26 01:25:38;;;;;;;2.40;1.55;;;;;;;;;;5124058;27;42192;-70
2023/09/26 01:28:07;;;;;;;1.65;1.33;;;;;;;;;;5128295;27;41914;-71
2023/09/26 01:30:35;;;;;;;2.70;1.60;;;;;;;;;;5108661;27;41572;-70
2023/09/26 01:33:03;;;;;;;1.52;1.40;;;;;;;;;;5127550;27;41908;-71
2023/09/26 01:35:31;;;;;;;1.90;1.48;;;;;;;;;;5130958;27;41363;-70
2023/09/26 01:37:59;;;;;;;2.53;1.85;;;;;;;;;;5132149;27;41488;-70
2023/09/26 01:40:27;;;;;;;2.83;1.60;;;;;;;;;;5129471;27;40462;-70
2023/09/26 01:42:57;;;;;;;1.65;1.38;;;;;;;;;;5132805;27;41428;-71
2023/09/26 01:45:25;;;;;;;1.90;1.70;;;;;;;;;;5131165;27;42146;-71
2023/09/26 01:47:53;;;;;;;2.33;1.60;;;;;;;;;;5132622;27;42051;-71
2023/09/26 01:50:21;;;;;;;3.30;1.48;;;;;;;;;;5126544;27;41303;-70
2023/09/26 01:52:49;;;;;;;4.05;2.05;;;;;;;;;;5116485;27;42293;-70
2023/09/26 01:55:17;;;;;;;2.63;1.90;;;;;;;;;;5113159;27;39877;-71
2023/09/26 01:57:45;;;;;;;2.08;1.30;;;;;;;;;;5131224;27;42175;-70
2023/09/26 02:00:15;;;;;;;2.55;1.52;;;;;;;;;;5112005;27;40053;-71
2023/09/26 02:02:43;;;;;;;1.40;1.30;;;;;;;;;;5129054;27;41533;-70
2023/09/26 02:05:12;;;;;;;2.45;1.73;;;;;;;;;;5131268;27;41960;-70
2023/09/26 02:07:40;;;;;;;1.73;1.63;;;;;;;;;;5130370;27;40643;-71
2023/09/26 02:10:08;;;;;;;2.53;1.63;;;;;;;;;;5131341;27;41290;-71
2023/09/26 02:12:36;;;;;;;1.60;1.42;;;;;;;;;;5114789;27;41783;-70
2023/09/26 02:15:08;;;;;;;1.67;1.45;;;;;;;;;;5111431;27;40290;-71
2023/09/26 02:17:37;;;;;;;2.20;1.58;;;;;;;;;;5130869;27;42806;-71
2023/09/26 02:20:11;;;;;;;1.98;1.75;;;;;;;;;;5129405;27;40421;-71
2023/09/26 02:22:39;;;;;;;1.73;1.60;;;;;;;;;;5111375;27;39797;-71
2023/09/26 02:25:08;;;;;;;1.42;1.30;;;;;;;;;;5130893;27;41619;-71
2023/09/26 02:27:36;;;;;;;1.83;1.70;;;;;;;;;;5129927;27;43151;-70
2023/09/26 02:30:04;;;;;;;1.52;1.42;;;;;;;;;;5131265;27;42705;-71
2023/09/26 02:32:32;;;;;;;1.52;1.42;;;;;;;;;;5128822;27;42865;-70
2023/09/26 02:35:02;;;;;;;2.10;1.52;;;;;;;;;;5111531;27;39677;-71
2023/09/26 02:37:30;;;;;;;1.95;1.67;;;;;;;;;;5129899;27;42513;-70
2023/09/26 02:39:58;;;;;;;2.58;2.05;;;;;;;;;;5127658;27;41883;-71
2023/09/26 02:42:26;;;;;;;2.10;1.63;;;;;;;;;;5129669;27;42151;-71
2023/09/26 02:44:54;;;;;;;1.73;1.40;;;;;;;;;;5111256;27;41812;-71
2023/09/26 02:47:22;;;;;;;2.33;2.00;;;;;;;;;;5111888;27;40088;-71
2023/09/26 02:49:50;;;;;;;2.15;1.65;;;;;;;;;;5111448;27;41851;-70
2023/09/26 02:52:19;;;;;;;1.42;1.17;;;;;;;;;;5129861;27;42107;-71
2023/09/26 02:54:48;;;;;;;2.42;1.70;;;;;;;;;;5130120;27;42827;-71
2023/09/26 02:57:16;;;;;;;1.83;1.65;;;;;;;;;;5129953;27;41635;-71
2023/09/26 02:59:44;;;;;;;2.35;1.40;;;;;;;;;;5130009;27;43431;-71
2023/09/26 03:02:13;;;;;;;1.95;1.70;;;;;;;;;;5129881;27;41082;-71
2023/09/26 03:04:41;;;;;;;1.63;1.33;;;;;;;;;;5109931;27;40879;-71
2023/09/26 03:07:09;;;;;;;1.85;1.50;;;;;;;;;;5130047;27;42118;-71
2023/09/26 03:09:39;;;;;;;1.90;1.70;;;;;;;;;;5129224;27;41005;-70
2023/09/26 03:12:07;;;;;;;1.65;1.42;;;;;;;;;;5130439;27;42383;-71
2023/09/26 03:14:35;;;;;;;1.55;1.27;;;;;;;;;;5110764;27;40761;-71
2023/09/26 03:17:05;;;;;;;1.52;1.42;;;;;;;;;;5111171;27;40863;-71
2023/09/26 03:19:33;;;;;;;3.35;1.52;;;;;;;;;;5127069;27;42188;-71
2023/09/26 03:22:02;;;;;;;2.03;1.60;;;;;;;;;;5129862;27;42251;-71
2023/09/26 03:24:30;;;;;;;2.28;1.60;;;;;;;;;;5109626;27;40552;-71
2023/09/26 03:27:01;;;;;;;2.03;1.60;;;;;;;;;;5127866;27;41333;-70
2023/09/26 03:29:29;;;;;;;1.70;1.58;;;;;;;;;;5110340;27;40826;-71
2023/09/26 03:31:57;;;;;;;2.03;1.60;;;;;;;;;;5128090;27;42682;-70
2023/09/26 03:34:25;;;;;;;2.60;1.67;;;;;;;;;;5129752;27;33099;-71
2023/09/26 03:36:54;;;;;;;2.03;1.83;;;;;;;;;;5110669;27;40238;-71
2023/09/26 03:39:22;;;;;;;2.10;1.80;;;;;;;;;;5129120;27;42357;-71
2023/09/26 03:41:50;;;;;;;1.63;1.42;;;;;;;;;;5120342;27;39585;-70
2023/09/26 03:44:19;;;;;;;1.63;1.35;;;;;;;;;;5129479;27;41520;-71
2023/09/26 03:46:47;;;;;;;2.55;1.50;;;;;;;;;;5135170;27;42140;-71
2023/09/26 03:49:15;;;;;;;2.00;1.75;;;;;;;;;;5129408;27;41977;-70
2023/09/26 03:51:43;;;;;;;1.42;1.33;;;;;;;;;;5128405;27;41856;-71
2023/09/26 03:54:11;;;;;;;1.42;1.33;;;;;;;;;;5114355;27;42077;-70
2023/09/26 03:56:39;;;;;;;1.80;1.50;;;;;;;;;;5114495;27;41585;-70
2023/09/26 03:59:07;;;;;;;1.65;1.52;;;;;;;;;;5128645;27;43250;-70
2023/09/26 04:01:37;;;;;;;1.83;1.63;;;;;;;;;;5129550;27;41601;-70
2023/09/26 04:04:07;;;;;;;1.73;1.40;;;;;;;;;;5128584;27;42670;-71
2023/09/26 04:06:35;;;;;;;1.92;1.50;;;;;;;;;;5128562;27;41508;-71
2023/09/26 04:09:03;;;;;;;2.35;1.63;;;;;;;;;;5129685;27;41249;-71
2023/09/26 04:11:31;;;;;;;1.77;1.50;;;;;;;;;;5130678;27;42716;-70
2023/09/26 04:14:00;;;;;;;1.83;1.33;;;;;;;;;;5130003;27;42291;-71
2023/09/26 04:16:28;;;;;;;1.25;1.13;;;;;;;;;;5122176;27;40864;-71
2023/09/26 04:18:57;;;;;;;1.60;1.50;;;;;;;;;;5118746;27;42588;-70
2023/09/26 04:21:25;;;;;;;1.67;1.58;;;;;;;;;;5123183;27;40966;-71
2023/09/26 04:23:54;;;;;;;1.85;1.63;;;;;;;;;;5128631;27;41179;-71
2023/09/26 04:26:23;;;;;;;2.40;2.00;;;;;;;;;;5128213;27;41553;-71
2023/09/26 04:28:51;;;;;;;1.85;1.48;;;;;;;;;;5128364;27;41341;-71
2023/09/26 04:31:19;;;;;;;1.65;1.55;;;;;;;;;;5129175;27;41581;-70
2023/09/26 04:33:48;;;;;;;2.28;2.08;;;;;;;;;;5128598;27;41957;-70
2023/09/26 04:36:18;;;;;;;1.98;1.50;;;;;;;;;;5124931;27;42468;-71
2023/09/26 04:38:46;;;;;;;1.60;1.48;;;;;;;;;;5116582;27;42017;-71
2023/09/26 04:41:14;;;;;;;2.42;1.40;;;;;;;;;;5123759;27;41777;-70
2023/09/26 04:43:42;;;;;;;2.00;1.63;;;;;;;;;;5124927;27;41466;-71
2023/09/26 04:46:10;;;;;;;2.65;1.52;;;;;;;;;;5128523;27;43123;-71
2023/09/26 04:48:38;;;;;;;2.05;1.77;;;;;;;;;;5127596;27;41975;-71
2023/09/26 04:51:07;;;;;;;1.92;1.73;;;;;;;;;;5131994;27;41766;-71
2023/09/26 04:53:36;;;;;;;4.10;2.05;;;;;;;;;;5133717;27;42099;-71
2023/09/26 04:56:04;;;;;;;4.15;1.85;;;;;;;;;;5127556;27;40921;-71
2023/09/26 04:58:32;;;;;;;2.10;1.90;;;;;;;;;;5127932;27;41342;-70
2023/09/26 05:01:01;;;;;;;1.90;1.70;;;;;;;;;;5110575;27;40779;-70
2023/09/26 05:03:29;;;;;;;1.50;1.40;;;;;;;;;;5125687;27;41521;-71
2023/09/26 05:05:57;;;;;;;1.95;1.75;;;;;;;;;;5127883;27;43109;-70
2023/09/26 05:08:25;;;;;;;2.42;1.80;;;;;;;;;;5127599;27;42223;-70
2023/09/26 05:10:55;;;;;;;1.90;1.70;;;;;;;;;;5127458;27;42698;-71
2023/09/26 05:13:23;;;;;;;1.85;1.63;;;;;;;;;;5127970;27;43351;-71
2023/09/26 05:15:51;;;;;;;2.72;2.10;;;;;;;;;;5127884;27;41883;-71
2023/09/26 05:18:19;;;;;;;2.10;1.90;;;;;;;;;;5133932;27;42227;-70
2023/09/26 05:20:47;;;;;;;1.35;1.25;;;;;;;;;;5128055;27;41526;-71
2023/09/26 05:23:15;;;;;;;5.80;1.90;;;;;;;;;;5128044;27;42267;-71
2023/09/26 05:25:43;;;;;;;7.72;2.03;;;;;;;;;;5124701;27;42090;-70
2023/09/26 05:28:12;;;;;;;5.97;1.60;;;;;;;;;;5127583;27;42311;-71
2023/09/26 05:30:41;;;;;;;13.27;2.45;;;;;;;;;;5115232;27;40271;-71
2023/09/26 05:33:09;;;;;;;10.13;2.90;;;;;;;;;;5127903;27;42724;-71
2023/09/26 05:35:37;;;;;;;13.05;2.80;;;;;;;;;;5127996;27;40876;-69
2023/09/26 05:38:05;;;;;;;6.82;3.40;;;;;;;;;;5127337;27;42497;-70
2023/09/26 05:40:33;;;;;;;4.43;3.08;;;;;;;;;;5127035;27;42666;-72
2023/09/26 05:43:01;;;;;;;44.50;5.13;;;;;;;;;;5128616;27;42211;-72
2023/09/26 05:45:30;;;;;;;20.15;4.72;;;;;;;;;;5137864;27;43319;-72
2023/09/26 05:48:00;;;;;;;23.70;4.57;;;;;;;;;;5127030;27;41607;-72
2023/09/26 05:50:28;;;;;;;17.55;4.35;;;;;;;;;;5126853;27;41616;-71
2023/09/26 05:52:56;;;;;;;12.02;4.45;;;;;;;;;;5127246;27;42944;-71
2023/09/26 05:55:24;;;;;;;16.33;4.45;;;;;;;;;;5126954;27;41831;-71
2023/09/26 05:57:52;;;;;;;10.45;3.88;;;;;;;;;;5127907;27;41457;-71
2023/09/26 06:00:20;;;;;;;19.30;4.43;;;;;;;;;;5128216;27;43583;-72
2023/09/26 06:02:50;;;;;;;14.05;4.22;;;;;;;;;;5127516;27;41433;-72
2023/09/26 06:05:18;;;;;;;17.58;4.18;;;;;;;;;;5128861;27;40868;-71
2023/09/26 06:07:46;;;;;;;18.65;4.72;;;;;;;;;;5127944;27;41731;-70
2023/09/26 06:10:15;;;;;;;15.73;4.60;;;;;;;;;;5128233;27;42703;-72
2023/09/26 06:12:43;;;;;;;31.75;5.03;;;;;;;;;;5126294;27;42181;-72
2023/09/26 06:15:11;;;;;;;30.15;5.13;;;;;;;;;;5127252;27;41383;-70
2023/09/26 06:17:40;;;;;;;27.30;5.18;;;;;;;;;;5127293;27;41627;-69
2023/09/26 06:20:12;;;;;;;34.60;5.22;;;;;;;;;;5128265;27;42022;-69
2023/09/26 06:22:40;;;;;;;18.77;4.70;;;;;;;;;;5128672;27;40391;-70
2023/09/26 06:25:08;;;;;;;40.33;6.28;;;;;;;;;;5130816;27;40581;-69
2023/09/26 06:27:38;;;;;;;33.80;5.82;;;;;;;;;;5129645;27;43815;-69
2023/09/26 06:30:06;;;;;;;34.70;5.45;;;;;;;;;;5130772;27;42507;-69
2023/09/26 06:32:35;;;;;;;24.63;5.18;;;;;;;;;;5130476;27;42462;-68
2023/09/26 06:35:03;;;;;;;24.25;5.55;;;;;;;;;;5130384;27;43014;-70
2023/09/26 06:37:32;;;;;;;15.23;4.20;;;;;;;;;;5130907;27;42682;-70
2023/09/26 06:40:04;;;;;;;13.23;4.97;;;;;;;;;;5130093;27;42912;-70
2023/09/26 06:42:32;;;;;;;18.92;5.35;;;;;;;;;;5127410;27;42460;-70
2023/09/26 06:45:00;;;;;;;15.13;4.32;;;;;;;;;;5130392;27;41271;-70
2023/09/26 06:47:28;;;;;;;11.48;4.47;;;;;;;;;;5128856;27;42502;-72
2023/09/26 06:49:56;;;;;;;14.07;4.55;;;;;;;;;;5130766;27;42421;-71
2023/09/26 06:52:24;;;;;;;13.02;4.22;;;;;;;;;;5133019;27;42529;-71
2023/09/26 06:54:54;;;;;;;15.00;4.20;;;;;;;;;;5129715;27;41144;-72
2023/09/26 06:57:26;;;;;;;11.63;4.47;;;;;;;;;;5130117;27;40902;-71
2023/09/26 06:59:55;;;;;;;28.05;4.80;;;;;;;;;;5110543;27;41014;-71
2023/09/26 07:02:24;;;;;;;19.27;4.00;;;;;;;;;;5128151;27;41313;-72
2023/09/26 07:04:54;;;;;;;49.88;5.22;;;;;;;;;;5128531;27;42052;-70
2023/09/26 07:07:23;;;;;;;54.22;4.97;;;;;;;;;;5125045;27;43023;-70
2023/09/26 07:09:52;;;;;;;21.00;4.53;;;;;;;;;;5108167;27;40888;-71
2023/09/26 07:12:21;;;;;;;23.90;4.53;;;;;;;;;;5129941;27;42453;-71
2023/09/26 07:14:49;;;;;;;10.60;3.95;;;;;;;;;;5129499;27;41541;-71
2023/09/26 07:17:17;;;;;;;31.63;5.43;;;;;;;;;;5129188;27;41301;-70
2023/09/26 07:19:45;;;;;;;27.08;6.20;;;;;;;;;;5129612;27;42107;-71
2023/09/26 07:22:13;;;;;;;29.17;5.00;;;;;;;;;;5129897;27;42033;-71
2023/09/26 07:24:41;;;;;;;24.90;5.70;;;;;;;;;;5128725;27;42446;-71
2023/09/26 07:27:17;;;;;;;30.92;6.45;;;;;;;;;;5129174;27;41953;-71
2023/09/26 07:29:47;;;;;;;20.67;6.50;;;;;;;;;;5128687;27;41094;-70
2023/09/26 07:32:15;;;;;;;23.85;7.78;;;;;;;;;;5127266;27;42105;-74
2023/09/26 07:34:43;;;;;;;29.50;7.65;;;;;;;;;;5129806;27;42505;-70
2023/09/26 07:37:11;;;;;;;25.75;6.68;;;;;;;;;;5128849;27;41659;-71
2023/09/26 07:39:41;;;;;;;17.25;6.53;;;;;;;;;;5110240;27;40537;-71
2023/09/26 07:42:09;;;;;;;22.17;7.50;;;;;;;;;;5128988;27;41318;-71
2023/09/26 07:44:37;;;;;;;20.75;8.15;;;;;;;;;;5127996;27;41732;-71
2023/09/26 07:47:07;;;;;;;20.70;7.30;;;;;;;;;;5128666;27;42161;-70
2023/09/26 07:49:35;;;;;;;21.23;7.32;;;;;;;;;;5125460;27;42055;-70
2023/09/26 07:52:03;;;;;;;23.25;7.15;;;;;;;;;;5128403;27;42396;-70
2023/09/26 07:54:32;;;;;;;17.02;6.45;;;;;;;;;;5129270;27;42300;-70
2023/09/26 07:57:00;;;;;;;21.00;6.90;;;;;;;;;;5129331;27;41596;-71
2023/09/26 07:59:27;;;;;;;11.00;5.97;;;;;;;;;;5126196;27;42002;-70
2023/09/26 08:01:56;;;;;;;27.92;6.53;;;;;;;;;;5108722;27;41995;-73
2023/09/26 08:04:25;;;;;;;15.43;6.30;;;;;;;;;;5125260;27;42847;-70
2023/09/26 08:06:53;;;;;;;17.42;6.63;;;;;;;;;;5127996;27;42445;-70
2023/09/26 08:09:21;;;;;;;20.92;7.28;;;;;;;;;;5114569;27;41586;-71
2023/09/26 08:11:49;;;;;;;23.40;6.40;;;;;;;;;;5116107;27;41587;-71
2023/09/26 08:14:17;;;;;;;26.75;6.47;;;;;;;;;;5127921;27;42075;-71
2023/09/26 08:16:47;;;;;;;18.70;6.60;;;;;;;;;;5129149;27;41711;-72
2023/09/26 08:19:15;;;;;;;12.07;5.80;;;;;;;;;;5128063;27;43016;-71
2023/09/26 08:21:45;;;;;;;19.67;5.78;;;;;;;;;;5128417;27;41388;-71
2023/09/26 08:24:13;;;;;;;18.63;6.22;;;;;;;;;;5128481;27;40969;-72
2023/09/26 08:26:41;;;;;;;13.88;6.05;;;;;;;;;;5119678;27;40830;-71
2023/09/26 08:29:09;;;;;;;14.80;6.20;;;;;;;;;;5126168;27;41077;-71
2023/09/26 08:31:37;;;;;;;13.05;7.15;;;;;;;;;;5124986;27;41690;-71
2023/09/26 08:34:05;;;;;;;9.38;7.00;;;;;;;;;;5127808;27;42621;-71
2023/09/26 08:36:33;;;;;;;8.95;6.78;;;;;;;;;;5126354;27;41362;-71
2023/09/26 08:39:03;;;;;;;9.32;7.57;;;;;;;;;;5128189;27;41854;-71
2023/09/26 08:41:31;;;;;;;10.43;7.22;;;;;;;;;;5126541;27;41174;-71
2023/09/26 08:43:59;;;;;;;11.00;7.07;;;;;;;;;;5127145;27;42308;-71
2023/09/26 08:46:27;;;;;;;11.27;7.53;;;;;;;;;;5127362;27;42687;-71
2023/09/26 08:48:55;;;;;;;9.15;6.88;;;;;;;;;;5126120;27;41613;-71
2023/09/26 08:51:25;;;;;;;10.07;7.32;;;;;;;;;;5127746;27;41190;-71
2023/09/26 08:53:53;;;;;;;13.10;7.40;;;;;;;;;;5127541;27;43040;-71
2023/09/26 08:56:23;;;;;;;10.00;7.38;;;;;;;;;;5115551;27;39733;-71
2023/09/26 08:58:51;;;;;;;10.02;7.30;;;;;;;;;;5109309;27;41727;-71
2023/09/26 09:01:19;;;;;;;8.40;6.70;;;;;;;;;;5127177;27;42000;-71
2023/09/26 09:03:47;;;;;;;9.40;6.93;;;;;;;;;;5127656;27;40975;-71
2023/09/26 09:06:15;;;;;;;10.95;7.32;;;;;;;;;;5127421;27;42585;-70
2023/09/26 09:08:44;;;;;;;9.10;6.53;;;;;;;;;;5126714;27;41981;-71
2023/09/26 09:11:12;;;;;;;10.80;7.45;;;;;;;;;;5127798;27;41916;-71
2023/09/26 09:13:42;;;;;;;9.10;7.25;;;;;;;;;;5126848;27;42048;-71
2023/09/26 09:16:11;;;;;;;9.98;6.63;;;;;;;;;;5123254;27;41607;-71
2023/09/26 09:18:41;;;;;;;12.32;7.13;;;;;;;;;;5126975;27;42080;-71
2023/09/26 09:21:29;;;;;;;7.38;6.63;;;;;;;;;;5108267;27;41691;-70
2023/09/26 09:23:58;;;;;;;10.02;6.82;;;;;;;;;;5126114;27;42131;-70
2023/09/26 09:26:28;;;;;;;9.48;6.93;;;;;;;;;;5122292;27;41459;-70
2023/09/26 09:28:59;;;;;;;10.25;6.75;;;;;;;;;;5128199;27;42431;-70
2023/09/26 09:31:27;;;;;;;9.90;6.60;;;;;;;;;;5125001;27;41720;-71
2023/09/26 09:33:56;;;;;;;8.65;6.60;;;;;;;;;;5127739;27;41994;-71
2023/09/26 09:36:24;;;;;;;11.88;6.80;;;;;;;;;;5127064;27;40756;-70
2023/09/26 09:38:52;;;;;;;8.63;6.38;;;;;;;;;;5127548;27;42017;-71
2023/09/26 09:41:21;;;;;;;9.35;6.38;;;;;;;;;;5126949;27;41562;-71
2023/09/26 09:43:49;;;;;;;11.77;6.18;;;;;;;;;;5126383;27;42283;-71
2023/09/26 09:46:18;;;;;;;8.07;6.22;;;;;;;;;;5125946;27;40874;-70
2023/09/26 09:48:46;;;;;;;8.27;6.50;;;;;;;;;;5127016;27;40971;-70
2023/09/26 09:51:15;;;;;;;10.73;6.20;;;;;;;;;;5108212;27;41454;-70
2023/09/26 09:53:45;;;;;;;11.43;7.00;;;;;;;;;;5127396;27;42843;-70
2023/09/26 09:56:18;;;;;;;12.60;7.20;;;;;;;;;;5129749;27;41620;-70
2023/09/26 09:58:49;;;;;;;11.80;6.60;;;;;;;;;;5129705;27;42287;-70
2023/09/26 10:01:20;;;;;;;8.70;6.50;;;;;;;;;;5129832;27;41983;-71
2023/09/26 10:03:50;;;;;;;11.20;6.65;;;;;;;;;;5130280;27;41214;-70
2023/09/26 10:06:21;;;;;;;9.90;6.72;;;;;;;;;;5127285;27;42099;-70
2023/09/26 10:08:49;;;;;;;11.35;6.13;;;;;;;;;;5112178;27;41453;-70
2023/09/26 10:11:18;;;;;;;8.77;6.95;;;;;;;;;;5128309;27;42105;-70
2023/09/26 10:13:47;;;;;;;9.20;6.90;;;;;;;;;;5129955;27;41973;-69
2023/09/26 10:16:17;;;;;;;12.18;6.72;;;;;;;;;;5130728;27;43065;-69
2023/09/26 10:18:48;;;;;;;10.93;6.15;;;;;;;;;;5129212;27;41202;-69
2023/09/26 10:21:20;;;;;;;15.13;6.30;;;;;;;;;;5127524;27;43117;-69
2023/09/26 10:24:06;;;;;;;14.25;5.97;;;;;;;;;;5129782;27;42232;-70
2023/09/26 10:26:34;;;;;;;9.85;4.78;;;;;;;;;;5127523;27;42234;-69
2023/09/26 10:29:05;;;;;;;9.90;5.25;;;;;;;;;;5130421;27;41722;-69
2023/09/26 10:31:33;;;;;;;11.27;4.88;;;;;;;;;;5129308;27;41718;-70
2023/09/26 10:34:02;;;;;;;11.48;5.15;;;;;;;;;;5129196;27;42617;-69
2023/09/26 10:36:30;;;;;;;11.02;5.00;;;;;;;;;;5129796;27;41977;-68
2023/09/26 10:38:58;;;;;;;9.48;5.05;;;;;;;;;;5130804;27;42242;-68
2023/09/26 10:41:27;;;;;;;6.65;4.35;;;;;;;;;;5130099;27;43093;-68
2023/09/26 10:43:55;;;;;;;15.35;4.60;;;;;;;;;;5130141;27;42515;-68
2023/09/26 10:46:28;;;;;;;9.82;3.95;;;;;;;;;;5117121;27;41183;-68
2023/09/26 10:48:57;;;;;;;13.48;4.60;;;;;;;;;;5126722;27;42683;-69
2023/09/26 10:51:27;;;;;;;7.35;3.97;;;;;;;;;;5130320;27;42394;-68
2023/09/26 10:53:55;;;;;;;7.63;3.63;;;;;;;;;;5129180;27;43175;-68
2023/09/26 10:56:23;;;;;;;7.88;3.95;;;;;;;;;;5130248;27;41076;-69
2023/09/26 10:58:53;;;;;;;8.10;4.72;;;;;;;;;;5129671;27;41832;-69
2023/09/26 11:01:21;;;;;;;8.48;4.32;;;;;;;;;;5111707;27;42121;-68
2023/09/26 11:03:49;;;;;;;7.30;4.70;;;;;;;;;;5129669;27;41132;-69
2023/09/26 11:06:17;;;;;;;9.48;4.72;;;;;;;;;;5128994;27;41727;-69
2023/09/26 11:08:48;;;;;;;12.90;4.28;;;;;;;;;;5128503;27;43228;-69
2023/09/26 11:11:18;;;;;;;8.23;4.10;;;;;;;;;;5110838;27;41084;-68
2023/09/26 11:13:46;;;;;;;7.57;4.50;;;;;;;;;;5110967;27;40619;-69
2023/09/26 11:16:14;;;;;;;9.07;3.80;;;;;;;;;;5129726;27;41648;-69
2023/09/26 11:18:42;;;;;;;13.57;3.85;;;;;;;;;;5129654;27;40516;-69
2023/09/26 11:21:10;;;;;;;12.85;4.13;;;;;;;;;;5118827;27;41591;-69
2023/09/26 11:23:56;;;;;;;9.07;3.53;;;;;;;;;;5127082;27;42316;-69
2023/09/26 11:26:24;;;;;;;9.70;3.83;;;;;;;;;;5129998;27;41482;-69
2023/09/26 11:28:54;;;;;;;6.97;3.90;;;;;;;;;;5129814;27;42785;-68
2023/09/26 11:31:22;;;;;;;4.50;3.10;;;;;;;;;;5129461;27;43378;-69
2023/09/26 11:33:50;;;;;;;6.00;4.07;;;;;;;;;;5129805;27;41515;-69
2023/09/26 11:36:19;;;;;;;7.88;3.67;;;;;;;;;;5128711;27;42466;-69
2023/09/26 11:38:47;;;;;;;7.75;3.20;;;;;;;;;;5115124;27;41608;-69
2023/09/26 11:41:17;;;;;;;9.05;3.90;;;;;;;;;;5110644;27;41534;-69
2023/09/26 11:43:47;;;;;;;8.13;3.50;;;;;;;;;;5128473;27;41261;-69
2023/09/26 11:46:16;;;;;;;6.97;3.38;;;;;;;;;;5126782;27;41102;-69
2023/09/26 11:48:44;;;;;;;6.55;3.72;;;;;;;;;;5129367;27;43194;-69
2023/09/26 11:51:12;;;;;;;4.68;3.05;;;;;;;;;;5128640;27;41574;-69
2023/09/26 11:53:40;;;;;;;5.55;3.00;;;;;;;;;;5128687;27;42353;-69
2023/09/26 11:56:08;;;;;;;6.32;3.08;;;;;;;;;;5129179;27;42165;-69
2023/09/26 11:58:37;;;;;;;4.32;2.90;;;;;;;;;;5109585;27;39083;-69
2023/09/26 12:01:05;;;;;;;5.50;2.75;;;;;;;;;;5128494;27;42404;-69
2023/09/26 12:03:33;;;;;;;3.70;2.60;;;;;;;;;;5128718;27;42302;-69
2023/09/26 12:06:01;;;;;;;6.50;2.90;;;;;;;;;;5128095;27;41816;-69
2023/09/26 12:08:29;;;;;;;4.30;2.67;;;;;;;;;;5128533;27;41946;-69
2023/09/26 12:10:57;;;;;;;7.07;2.95;;;;;;;;;;5127749;27;41186;-69
2023/09/26 12:13:25;;;;;;;4.93;2.72;;;;;;;;;;5128391;27;41746;-69
2023/09/26 12:15:56;;;;;;;4.97;2.72;;;;;;;;;;5120722;27;42180;-69
2023/09/26 12:18:25;;;;;;;3.17;2.35;;;;;;;;;;5119369;27;41909;-69
2023/09/26 12:20:55;;;;;;;4.45;2.42;;;;;;;;;;5127908;27;41756;-69
2023/09/26 12:23:23;;;;;;;4.65;2.50;;;;;;;;;;5127271;27;42123;-69
2023/09/26 12:25:51;;;;;;;4.05;2.80;;;;;;;;;;5125232;27;42589;-69
2023/09/26 12:28:21;;;;;;;4.70;2.47;;;;;;;;;;5127853;27;43199;-69
2023/09/26 12:30:50;;;;;;;5.43;2.40;;;;;;;;;;5127473;27;41265;-68
2023/09/26 12:33:20;;;;;;;7.50;3.03;;;;;;;;;;5128966;27;42897;-68
2023/09/26 12:35:48;;;;;;;6.78;2.78;;;;;;;;;;5128043;27;41953;-68
2023/09/26 12:38:17;;;;;;;4.65;2.92;;;;;;;;;;5126071;27;42274;-68
2023/09/26 12:40:45;;;;;;;4.78;2.90;;;;;;;;;;5114578;27;41358;-68
2023/09/26 12:43:13;;;;;;;5.05;2.53;;;;;;;;;;5128421;27;41448;-69
2023/09/26 12:45:41;;;;;;;8.82;3.00;;;;;;;;;;5128693;27;42729;-68
2023/09/26 12:48:09;;;;;;;6.13;3.03;;;;;;;;;;5127729;27;41752;-68
2023/09/26 12:50:39;;;;;;;6.93;3.10;;;;;;;;;;5127028;27;42102;-69
2023/09/26 12:53:07;;;;;;;4.13;2.88;;;;;;;;;;5128304;27;41465;-69
2023/09/26 12:55:35;;;;;;;5.38;2.85;;;;;;;;;;5127211;27;42506;-69
2023/09/26 12:58:03;;;;;;;4.63;2.97;;;;;;;;;;5127995;27;41299;-69
2023/09/26 13:00:33;;;;;;;5.63;3.45;;;;;;;;;;5126521;27;42536;-69
2023/09/26 13:03:01;;;;;;;4.50;3.40;;;;;;;;;;5127846;27;42727;-69
2023/09/26 13:05:29;;;;;;;5.18;3.20;;;;;;;;;;5126781;27;42617;-69
2023/09/26 13:07:58;;;;;;;6.03;4.38;;;;;;;;;;5127422;27;42428;-69
2023/09/26 13:10:26;;;;;;;5.93;3.83;;;;;;;;;;5127148;27;41185;-69
2023/09/26 13:12:55;;;;;;;5.18;3.53;;;;;;;;;;5127839;27;41585;-69
2023/09/26 13:15:22;;;;;;;7.43;4.40;;;;;;;;;;5108322;27;40719;-69
2023/09/26 13:17:51;;;;;;;7.30;3.22;;;;;;;;;;5123882;27;41344;-69
2023/09/26 13:20:18;;;;;;;6.88;4.55;;;;;;;;;;5108762;27;40918;-70
2023/09/26 13:22:46;;;;;;;6.85;4.65;;;;;;;;;;5127015;27;42794;-69
2023/09/26 13:25:16;;;;;;;5.53;3.60;;;;;;;;;;5127961;27;42034;-69
2023/09/26 13:27:44;;;;;;;8.32;3.53;;;;;;;;;;5127752;27;42690;-69
2023/09/26 13:30:12;;;;;;;7.35;3.22;;;;;;;;;;5128925;27;41114;-69
2023/09/26 13:32:40;;;;;;;8.88;3.83;;;;;;;;;;5130934;27;41734;-69
2023/09/26 13:35:09;;;;;;;7.70;3.17;;;;;;;;;;5131232;27;42326;-69
2023/09/26 13:37:37;;;;;;;5.70;3.80;;;;;;;;;;5127202;27;40964;-69
2023/09/26 13:40:06;;;;;;;8.60;3.97;;;;;;;;;;5131511;27;41654;-69
2023/09/26 13:42:36;;;;;;;10.43;4.68;;;;;;;;;;5097576;28;43182;-69
2023/09/26 13:45:04;;;;;;;9.50;4.70;;;;;;;;;;5123056;27;42206;-69
2023/09/26 13:47:34;;;;;;;7.65;5.30;;;;;;;;;;5130501;27;41970;-69
2023/09/26 13:50:02;;;;;;;9.50;4.22;;;;;;;;;;5130967;27;41162;-70
2023/09/26 13:52:31;;;;;;;6.20;4.45;;;;;;;;;;5130576;27;42018;-69
2023/09/26 13:54:59;;;;;;;6.43;4.22;;;;;;;;;;5131443;27;43489;-69
2023/09/26 13:57:27;;;;;;;8.00;4.13;;;;;;;;;;5130006;27;42890;-69
2023/09/26 13:59:56;;;;;;;6.53;3.83;;;;;;;;;;5130896;27;42343;-70
2023/09/26 14:02:25;;;;;;;4.35;3.53;;;;;;;;;;5130391;27;42590;-69
2023/09/26 14:04:53;;;;;;;7.45;4.82;;;;;;;;;;5130421;27;41167;-69
2023/09/26 14:07:36;;;;;;;7.22;4.03;;;;;;;;;;5127363;27;42125;-69
2023/09/26 14:10:05;;;;;;;6.13;3.47;;;;;;;;;;5131486;27;33817;-69
2023/09/26 14:12:33;;;;;;;5.25;3.88;;;;;;;;;;5129074;27;41738;-69
2023/09/26 14:15:02;;;;;;;7.93;4.88;;;;;;;;;;5130835;27;42140;-69
2023/09/26 14:17:31;;;;;;;8.23;4.68;;;;;;;;;;5129426;27;41936;-69
2023/09/26 14:19:59;;;;;;;9.50;4.25;;;;;;;;;;5129613;27;42693;-69
2023/09/26 14:22:27;;;;;;;8.75;3.97;;;;;;;;;;5131765;27;43304;-69
2023/09/26 14:24:55;;;;;;;7.90;3.85;;;;;;;;;;5128503;27;42338;-69
2023/09/26 14:27:23;;;;;;;5.15;3.10;;;;;;;;;;5134990;27;42563;-69
2023/09/26 14:29:51;;;;;;;5.82;3.30;;;;;;;;;;5136946;27;42551;-69
2023/09/26 14:32:20;;;;;;;3.75;3.15;;;;;;;;;;5134387;27;42579;-69
2023/09/26 14:34:49;;;;;;;5.72;3.10;;;;;;;;;;5136416;27;42841;-69
2023/09/26 14:37:17;;;;;;;8.40;3.47;;;;;;;;;;5136425;27;42145;-69
2023/09/26 14:39:45;;;;;;;4.88;3.33;;;;;;;;;;5131800;27;42519;-69
2023/09/26 14:42:13;;;;;;;4.50;3.00;;;;;;;;;;5133468;27;41853;-69
2023/09/26 14:44:41;;;;;;;5.80;3.00;;;;;;;;;;5134582;27;41156;-69
2023/09/26 14:47:09;;;;;;;6.18;3.08;;;;;;;;;;5134093;27;42642;-69